createdAt,value
2022-09-03T00:02:08.686Z,67.88
2022-09-03T00:04:26.055Z,67.40
2022-09-03T00:06:43.331Z,67.70
2022-09-03T00:09:00.423Z,67.46
2022-09-03T00:11:17.688Z,68.64
2022-09-03T00:13:35.071Z,67.49
2022-09-03T00:15:53.510Z,68.14
2022-09-03T00:18:10.948Z,68.10
2022-09-03T00:20:28.258Z,67.90
2022-09-03T00:22:45.630Z,68.47
2022-09-03T00:25:02.732Z,68.26
2022-09-03T00:27:19.999Z,68.71
2022-09-03T00:29:37.107Z,69.09
2022-09-03T00:31:54.067Z,68.77
2022-09-03T00:34:11.393Z,68.83
2022-09-03T00:36:28.462Z,69.59
2022-09-03T00:38:45.397Z,68.29
2022-09-03T00:41:02.383Z,68.37
2022-09-03T00:43:20.606Z,69.92
2022-09-03T00:45:37.930Z,69.56
2022-09-03T00:47:56.165Z,69.16
2022-09-03T00:50:14.193Z,69.62
2022-09-03T00:52:33.664Z,69.51
2022-09-03T00:54:51.194Z,68.30
2022-09-03T00:57:08.185Z,68.78
2022-09-03T00:59:25.552Z,69.33
2022-09-03T01:01:42.693Z,68.72
2022-09-03T01:04:00.761Z,69.35
2022-09-03T01:06:17.692Z,69.46
2022-09-03T01:08:36.933Z,68.19
2022-09-03T01:10:54.212Z,68.85
2022-09-03T01:13:11.105Z,68.85
2022-09-03T01:15:28.094Z,68.15
2022-09-03T01:17:45.974Z,69.82
2022-09-03T01:20:02.939Z,68.93
2022-09-03T01:22:20.240Z,70.02
2022-09-03T01:24:37.262Z,68.97
2022-09-03T01:26:54.240Z,70.77
2022-09-03T01:29:11.262Z,69.57
2022-09-03T01:31:28.355Z,70.31
2022-09-03T01:33:45.462Z,69.60
2022-09-03T01:36:02.467Z,70.66
2022-09-03T01:38:20.770Z,69.90
2022-09-03T01:40:37.793Z,70.30
2022-09-03T01:42:55.049Z,69.86
2022-09-03T01:45:12.106Z,69.38
2022-09-03T01:47:30.428Z,70.56
2022-09-03T01:49:48.757Z,69.73
2022-09-03T01:52:06.032Z,69.47
2022-09-03T01:54:23.326Z,70.21
2022-09-03T01:56:40.374Z,70.20
2022-09-03T01:58:57.644Z,70.70
2022-09-03T02:01:14.699Z,69.63
2022-09-03T02:03:35.456Z,69.73
2022-09-03T02:05:57.896Z,69.86
2022-09-03T02:08:14.996Z,69.55
2022-09-03T02:10:31.896Z,69.30
2022-09-03T02:12:48.936Z,69.26
2022-09-03T02:15:06.861Z,70.35
2022-09-03T02:17:24.175Z,69.60
2022-09-03T02:19:41.136Z,70.30
2022-09-03T02:21:58.403Z,69.69
2022-09-03T02:24:15.442Z,69.55
2022-09-03T02:26:32.770Z,69.99
2022-09-03T02:28:49.802Z,68.96
2022-09-03T02:31:07.197Z,69.66
2022-09-03T02:33:24.297Z,71.30
2022-09-03T02:35:41.257Z,71.66
2022-09-03T02:37:58.562Z,71.22
2022-09-03T02:40:15.632Z,71.05
2022-09-03T02:42:32.931Z,71.02
2022-09-03T02:44:50.869Z,69.70
2022-09-03T02:47:08.300Z,70.11
2022-09-03T02:49:25.228Z,69.76
2022-09-03T02:51:42.539Z,70.30
2022-09-03T02:53:59.929Z,71.58
2022-09-03T02:56:17.288Z,71.45
2022-09-03T02:58:34.593Z,70.13
2022-09-03T03:00:51.715Z,71.20
2022-09-03T03:03:08.793Z,71.26
2022-09-03T03:05:25.905Z,70.88
2022-09-03T03:07:42.847Z,68.98
2022-09-03T03:10:00.153Z,69.30
2022-09-03T03:12:17.383Z,69.37
2022-09-03T03:14:34.294Z,70.03
2022-09-03T03:16:51.465Z,69.16
2022-09-03T03:19:08.535Z,69.69
2022-09-03T03:21:25.766Z,70.74
2022-09-03T03:23:43.076Z,70.82
2022-09-03T03:26:00.086Z,70.28
2022-09-03T03:28:17.901Z,70.22
2022-09-03T03:30:35.396Z,68.89
2022-09-03T03:32:52.658Z,70.33
2022-09-03T03:35:09.910Z,70.21
2022-09-03T03:37:27.219Z,68.69
2022-09-03T03:39:44.546Z,69.67
2022-09-03T03:42:01.910Z,69.03
2022-09-03T03:44:18.849Z,70.15
2022-09-03T03:46:36.095Z,68.76
2022-09-03T03:48:53.217Z,68.84
2022-09-03T03:51:10.236Z,70.01
2022-09-03T03:53:27.582Z,69.86
2022-09-03T03:55:44.498Z,68.65
2022-09-03T03:58:01.796Z,70.90
2022-09-03T04:00:18.756Z,70.59
2022-09-03T04:02:39.035Z,70.63
2022-09-03T04:04:56.556Z,69.78
2022-09-03T04:07:13.827Z,70.92
2022-09-03T04:09:30.857Z,70.39
2022-09-03T04:11:47.914Z,69.46
2022-09-03T04:14:04.930Z,68.91
2022-09-03T04:16:22.053Z,71.23
2022-09-03T04:18:39.032Z,69.36
2022-09-03T04:20:56.361Z,69.65
2022-09-03T04:23:14.709Z,69.58
2022-09-03T04:25:31.700Z,71.33
2022-09-03T04:27:48.960Z,68.87
2022-09-03T04:30:06.006Z,69.00
2022-09-03T04:32:23.322Z,70.17
2022-09-03T04:34:40.627Z,69.28
2022-09-03T04:36:57.562Z,69.15
2022-09-03T04:39:14.818Z,70.00
2022-09-03T04:41:31.788Z,69.42
2022-09-03T04:43:51.563Z,68.71
2022-09-03T04:46:16.101Z,69.88
2022-09-03T04:48:35.205Z,69.45
2022-09-03T04:50:54.735Z,71.97
2022-09-03T04:53:11.748Z,70.28
2022-09-03T04:55:29.066Z,70.74
2022-09-03T04:57:46.392Z,69.25
2022-09-03T05:00:03.639Z,70.76
2022-09-03T05:02:20.619Z,69.68
2022-09-03T05:04:37.548Z,70.18
2022-09-03T05:06:54.815Z,70.60
2022-09-03T05:09:11.867Z,69.97
2022-09-03T05:11:28.776Z,71.83
2022-09-03T05:13:45.731Z,70.91
2022-09-03T05:16:03.084Z,70.76
2022-09-03T05:18:20.143Z,70.49
2022-09-03T05:20:37.369Z,70.69
2022-09-03T05:22:54.440Z,68.35
2022-09-03T05:25:11.673Z,68.62
2022-09-03T05:27:28.657Z,69.16
2022-09-03T05:29:45.978Z,70.79
2022-09-03T05:32:03.356Z,69.83
2022-09-03T05:34:20.393Z,68.23
2022-09-03T05:36:37.293Z,68.83
2022-09-03T05:38:54.594Z,69.55
2022-09-03T05:41:11.665Z,70.01
2022-09-03T05:43:28.717Z,69.93
2022-09-03T05:45:45.806Z,69.97
2022-09-03T05:48:02.922Z,69.93
2022-09-03T05:50:19.961Z,68.06
2022-09-03T05:52:36.913Z,67.28
2022-09-03T05:54:53.926Z,69.24
2022-09-03T05:57:12.270Z,66.96
2022-09-03T05:59:29.322Z,68.38
2022-09-03T06:01:50.967Z,67.08
2022-09-03T06:04:09.312Z,66.44
2022-09-03T06:06:26.609Z,65.80
2022-09-03T06:08:43.561Z,66.54
2022-09-03T06:11:00.528Z,66.50
2022-09-03T06:13:17.806Z,65.20
2022-09-03T06:15:35.192Z,67.01
2022-09-03T06:17:52.169Z,66.48
2022-09-03T06:20:09.257Z,66.73
2022-09-03T06:22:26.292Z,66.98
2022-09-03T06:24:44.491Z,67.90
2022-09-03T06:27:07.018Z,66.99
2022-09-03T06:29:25.274Z,66.47
2022-09-03T06:31:42.567Z,67.04
2022-09-03T06:34:03.860Z,65.61
2022-09-03T06:36:21.152Z,67.07
2022-09-03T06:38:38.409Z,66.24
2022-09-03T06:40:55.339Z,65.38
2022-09-03T06:43:12.596Z,65.90
2022-09-03T06:45:29.964Z,65.11
2022-09-03T06:47:46.946Z,66.57
2022-09-03T06:50:04.308Z,66.28
2022-09-03T06:52:21.583Z,65.07
2022-09-03T06:54:38.922Z,66.14
2022-09-03T06:56:56.201Z,66.05
2022-09-03T06:59:13.594Z,65.76
2022-09-03T07:01:31.608Z,66.26
2022-09-03T07:03:48.978Z,65.59
2022-09-03T07:06:07.019Z,65.30
2022-09-03T07:08:24.155Z,66.01
2022-09-03T07:10:41.193Z,65.37
2022-09-03T07:12:58.446Z,65.00
2022-09-03T07:15:15.535Z,65.13
2022-09-03T07:17:32.498Z,64.43
2022-09-03T07:19:49.378Z,63.83
2022-09-03T07:22:06.700Z,63.62
2022-09-03T07:24:23.619Z,63.54
2022-09-03T07:26:40.650Z,63.37
2022-09-03T07:28:57.598Z,63.17
2022-09-03T07:31:14.592Z,63.03
2022-09-03T07:33:33.750Z,63.46
2022-09-03T07:35:50.956Z,63.48
2022-09-03T07:38:08.027Z,63.00
2022-09-03T07:40:25.392Z,63.36
2022-09-03T07:42:42.775Z,63.22
2022-09-03T07:45:00.013Z,63.17
2022-09-03T07:47:16.962Z,63.22
2022-09-03T07:49:44.492Z,63.07
2022-09-03T07:52:05.735Z,63.58
2022-09-03T07:54:28.931Z,63.34
2022-09-03T07:56:46.396Z,62.59
2022-09-03T07:59:03.353Z,62.84
2022-09-03T08:01:20.326Z,63.10
2022-09-03T08:03:37.675Z,63.70
2022-09-03T08:05:54.658Z,62.61
2022-09-03T08:08:11.749Z,62.54
2022-09-03T08:10:32.537Z,62.87
2022-09-03T08:12:49.874Z,62.00
2022-09-03T08:15:06.809Z,62.87
2022-09-03T08:17:23.976Z,61.71
2022-09-03T08:19:41.291Z,60.31
2022-09-03T08:21:58.296Z,61.07
2022-09-03T08:24:16.801Z,61.27
2022-09-03T08:26:34.081Z,62.11
2022-09-03T08:28:51.222Z,60.84
2022-09-03T08:31:08.359Z,59.61
2022-09-03T08:33:25.386Z,60.57
2022-09-03T08:35:42.997Z,59.21
2022-09-03T08:38:00.278Z,61.71
2022-09-03T08:40:17.347Z,61.30
2022-09-03T08:42:34.650Z,59.32
2022-09-03T08:44:51.670Z,58.99
2022-09-03T08:47:08.729Z,57.95
2022-09-03T08:49:25.996Z,58.07
2022-09-03T08:51:43.119Z,60.50
2022-09-03T08:54:00.074Z,58.36
2022-09-03T08:56:17.115Z,57.98
2022-09-03T08:58:34.475Z,59.65
2022-09-03T09:00:51.427Z,59.46
2022-09-03T09:03:08.414Z,59.34
2022-09-03T09:05:25.345Z,59.33
2022-09-03T09:07:44.088Z,58.56
2022-09-03T09:10:01.070Z,58.77
2022-09-03T09:12:18.108Z,59.75
2022-09-03T09:14:36.544Z,60.47
2022-09-03T09:16:56.730Z,59.32
2022-09-03T09:19:13.766Z,59.74
2022-09-03T09:21:31.089Z,60.09
2022-09-03T09:23:47.990Z,59.14
2022-09-03T09:26:05.048Z,60.37
2022-09-03T09:28:23.770Z,60.31
2022-09-03T09:30:41.152Z,61.58
2022-09-03T09:32:58.267Z,61.28
2022-09-03T09:35:15.279Z,61.61
2022-09-03T09:37:32.211Z,61.46
2022-09-03T09:39:49.345Z,62.42
2022-09-03T09:42:08.314Z,61.92
2022-09-03T09:44:25.410Z,62.55
2022-09-03T09:46:42.397Z,61.55
2022-09-03T09:48:59.397Z,60.78
2022-09-03T09:51:16.378Z,60.43
2022-09-03T09:53:33.344Z,60.49
2022-09-03T09:55:50.675Z,60.45
2022-09-03T09:58:13.466Z,60.93
2022-09-03T10:00:31.421Z,58.82
2022-09-03T10:02:48.410Z,61.40
2022-09-03T10:05:05.748Z,61.33
2022-09-03T10:07:22.793Z,60.15
2022-09-03T10:09:40.130Z,60.42
2022-09-03T10:11:57.069Z,59.49
2022-09-03T10:14:14.178Z,58.39
2022-09-03T10:16:32.110Z,59.12
2022-09-03T10:18:49.106Z,60.05
2022-09-03T10:21:06.508Z,60.76
2022-09-03T10:23:23.536Z,59.39
2022-09-03T10:25:41.330Z,59.57
2022-09-03T10:27:59.819Z,61.17
2022-09-03T10:30:17.079Z,61.09
2022-09-03T10:32:39.819Z,61.58
2022-09-03T10:34:58.414Z,59.73
2022-09-03T10:37:15.382Z,60.55
2022-09-03T10:39:32.400Z,60.59
2022-09-03T10:41:59.864Z,60.37
2022-09-03T10:44:17.042Z,61.52
2022-09-03T10:46:35.346Z,60.32
2022-09-03T10:48:52.409Z,59.72
2022-09-03T10:51:09.502Z,57.36
2022-09-03T10:53:26.564Z,56.29
2022-09-03T10:55:43.651Z,56.25
2022-09-03T10:58:00.730Z,54.83
2022-09-03T11:00:17.829Z,55.48
2022-09-03T11:02:35.910Z,54.89
2022-09-03T11:04:53.898Z,54.74
2022-09-03T11:07:10.878Z,53.55
2022-09-03T11:09:29.244Z,52.73
2022-09-03T11:11:46.335Z,53.83
2022-09-03T11:14:03.261Z,54.50
2022-09-03T11:16:20.307Z,54.59
2022-09-03T11:18:37.771Z,54.10
2022-09-03T11:20:54.828Z,53.73
2022-09-03T11:23:12.084Z,54.23
2022-09-03T11:25:29.823Z,53.45
2022-09-03T11:27:46.918Z,55.20
2022-09-03T11:30:03.923Z,54.45
2022-09-03T11:32:20.916Z,55.20
2022-09-03T11:34:38.083Z,53.96
2022-09-03T11:36:55.444Z,52.41
2022-09-03T11:39:12.397Z,53.00
2022-09-03T11:41:29.386Z,53.90
2022-09-03T11:43:46.532Z,52.62
2022-09-03T11:46:03.965Z,52.10
2022-09-03T11:48:21.256Z,53.41
2022-09-03T11:50:38.388Z,51.91
2022-09-03T11:52:55.869Z,51.94
2022-09-03T11:55:14.361Z,51.60
2022-09-03T11:57:31.710Z,51.53
2022-09-03T11:59:48.792Z,51.53
2022-09-03T12:02:06.185Z,51.31
2022-09-03T12:04:23.580Z,52.38
2022-09-03T12:06:40.900Z,53.58
2022-09-03T12:08:58.193Z,53.27
2022-09-03T12:11:15.513Z,54.47
2022-09-03T12:13:32.635Z,53.21
2022-09-03T12:15:49.913Z,53.49
2022-09-03T12:18:07.010Z,54.93
2022-09-03T12:20:24.095Z,55.89
2022-09-03T12:22:41.040Z,55.86
2022-09-03T12:24:58.788Z,56.32
2022-09-03T12:27:15.748Z,54.61
2022-09-03T12:29:32.715Z,52.26
2022-09-03T12:31:50.765Z,51.07
2022-09-03T12:34:08.743Z,49.37
2022-09-03T12:36:25.711Z,52.14
2022-09-03T12:39:09.835Z,51.45
2022-09-03T12:41:23.464Z,52.66
2022-09-03T12:43:49.861Z,52.82
2022-09-03T12:46:10.983Z,53.83
2022-09-03T12:48:32.854Z,54.09
2022-09-03T12:50:56.766Z,53.56
2022-09-03T12:53:13.909Z,52.41
2022-09-03T12:55:31.275Z,53.66
2022-09-03T12:57:48.432Z,53.51
2022-09-03T13:00:06.035Z,51.82
2022-09-03T13:02:23.107Z,53.92
2022-09-03T13:04:42.796Z,54.69
2022-09-03T13:06:59.827Z,54.79
2022-09-03T13:09:16.969Z,54.21
2022-09-03T13:11:34.279Z,54.89
2022-09-03T13:13:51.570Z,55.86
2022-09-03T13:16:08.726Z,56.71
2022-09-03T13:18:25.796Z,56.15
2022-09-03T13:20:42.857Z,56.15
2022-09-03T13:22:59.939Z,57.11
2022-09-03T13:25:17.210Z,57.53
2022-09-03T13:27:34.307Z,57.89
2022-09-03T13:29:52.579Z,57.92
2022-09-03T13:32:09.678Z,58.11
2022-09-03T13:34:26.683Z,58.59
2022-09-03T13:36:47.189Z,59.40
2022-09-03T13:39:04.347Z,59.39
2022-09-03T13:41:21.483Z,59.51
2022-09-03T13:43:38.431Z,58.96
2022-09-03T13:45:55.835Z,59.54
2022-09-03T13:48:13.376Z,59.36
2022-09-03T13:50:30.436Z,60.13
2022-09-03T13:52:47.588Z,60.84
2022-09-03T13:55:04.730Z,61.52
2022-09-03T13:57:21.717Z,63.00
2022-09-03T13:59:40.066Z,64.40
2022-09-03T14:01:59.559Z,63.15
2022-09-03T14:04:16.639Z,64.79
2022-09-03T14:06:33.923Z,68.16
2022-09-03T14:08:54.253Z,68.61
2022-09-03T14:11:14.101Z,71.11
2022-09-03T14:13:31.078Z,72.14
2022-09-03T14:15:48.134Z,72.88
2022-09-03T14:18:05.192Z,73.38
2022-09-03T14:20:22.473Z,72.54
2022-09-03T14:22:39.505Z,72.68
2022-09-03T14:24:56.470Z,74.10
2022-09-03T14:27:14.183Z,75.32
2022-09-03T14:29:31.050Z,74.38
2022-09-03T14:31:49.418Z,75.31
2022-09-03T14:34:06.806Z,75.50
2022-09-03T14:36:23.923Z,74.60
2022-09-03T14:38:41.290Z,76.76
2022-09-03T14:40:58.323Z,77.31
2022-09-03T14:43:15.397Z,78.75
2022-09-03T14:45:32.376Z,76.29
2022-09-03T14:47:49.341Z,75.27
2022-09-03T14:50:06.636Z,77.04
2022-09-03T14:52:24.174Z,77.63
2022-09-03T14:54:41.499Z,77.80
2022-09-03T14:56:59.445Z,78.66
2022-09-03T14:59:16.977Z,78.98
2022-09-03T15:01:38.870Z,79.03
2022-09-03T15:03:57.101Z,78.84
2022-09-03T15:06:14.166Z,79.11
2022-09-03T15:08:31.267Z,80.22
2022-09-03T15:10:49.538Z,79.13
2022-09-03T15:13:08.207Z,78.58
2022-09-03T15:15:25.524Z,78.99
2022-09-03T15:17:43.132Z,80.96
2022-09-03T15:20:00.596Z,78.19
2022-09-03T15:22:17.591Z,75.34
2022-09-03T15:24:36.442Z,74.99
2022-09-03T15:26:53.723Z,76.02
2022-09-03T15:29:10.983Z,75.76
2022-09-03T15:31:28.775Z,74.82
2022-09-03T15:33:46.132Z,74.26
2022-09-03T15:36:03.099Z,74.57
2022-09-03T15:38:20.428Z,71.45
2022-09-03T15:40:38.448Z,71.60
2022-09-03T15:42:57.954Z,70.29
2022-09-03T15:45:15.990Z,72.52
2022-09-03T15:47:46.526Z,69.49
2022-09-03T15:50:08.311Z,68.23
2022-09-03T15:52:26.650Z,69.36
2022-09-03T15:54:43.732Z,66.05
2022-09-03T15:57:00.792Z,66.81
2022-09-03T15:59:17.862Z,67.50
2022-09-03T16:01:35.504Z,67.23
2022-09-03T16:03:52.822Z,66.22
2022-09-03T16:06:11.919Z,67.06
2022-09-03T16:08:30.002Z,70.17
2022-09-03T16:10:47.067Z,70.41
2022-09-03T16:13:04.046Z,71.40
2022-09-03T16:15:21.037Z,72.57
2022-09-03T16:17:38.302Z,72.98
2022-09-03T16:19:55.853Z,74.98
2022-09-03T16:22:13.110Z,75.27
2022-09-03T16:24:30.071Z,74.67
2022-09-03T16:26:47.263Z,73.52
2022-09-03T16:29:04.206Z,73.70
2022-09-03T16:31:21.285Z,74.12
2022-09-03T16:33:38.477Z,74.51
2022-09-03T16:35:55.864Z,74.58
2022-09-03T16:38:14.206Z,72.62
2022-09-03T16:40:31.608Z,71.23
2022-09-03T16:42:48.639Z,70.62
2022-09-03T16:45:05.690Z,67.80
2022-09-03T16:47:23.019Z,69.78
2022-09-03T16:49:40.076Z,70.50
2022-09-03T16:51:57.135Z,72.39
2022-09-03T16:54:14.698Z,72.42
2022-09-03T16:56:33.024Z,71.53
2022-09-03T16:58:50.007Z,73.39
2022-09-03T17:01:07.558Z,72.82
2022-09-03T17:03:26.593Z,72.67
2022-09-03T17:05:43.926Z,74.39
2022-09-03T17:08:02.749Z,75.52
2022-09-03T17:10:20.166Z,75.96
2022-09-03T17:12:37.245Z,76.15
2022-09-03T17:14:54.624Z,78.16
2022-09-03T17:17:11.702Z,78.37
2022-09-03T17:19:28.674Z,79.03
2022-09-03T17:21:46.810Z,79.55
2022-09-03T17:24:03.918Z,79.91
2022-09-03T17:26:21.249Z,78.73
2022-09-03T17:28:38.340Z,81.13
2022-09-03T17:30:55.903Z,80.16
2022-09-03T17:33:13.910Z,81.63
2022-09-03T17:35:33.851Z,81.34
2022-09-03T17:37:54.695Z,82.59
2022-09-03T17:40:12.058Z,83.01
2022-09-03T17:42:29.157Z,83.15
2022-09-03T17:44:46.303Z,82.59
2022-09-03T17:47:03.790Z,82.98
2022-09-03T17:49:22.240Z,83.81
2022-09-03T17:51:39.327Z,83.81
2022-09-03T17:53:56.340Z,83.63
2022-09-03T17:56:13.496Z,83.84
2022-09-03T17:58:31.339Z,83.10
2022-09-03T18:00:48.683Z,83.41
2022-09-03T18:03:06.074Z,83.69
2022-09-03T18:05:23.187Z,84.14
2022-09-03T18:07:40.274Z,83.81
2022-09-03T18:09:57.257Z,83.89
2022-09-03T18:12:14.152Z,84.00
2022-09-03T18:14:31.428Z,83.11
2022-09-03T18:16:48.527Z,84.28
2022-09-03T18:19:05.500Z,84.16
2022-09-03T18:21:26.557Z,82.52
2022-09-03T18:23:46.205Z,84.94
2022-09-03T18:26:03.187Z,83.50
2022-09-03T18:28:20.587Z,83.79
2022-09-03T18:30:40.196Z,83.17
2022-09-03T18:32:57.561Z,85.36
2022-09-03T18:35:14.567Z,84.33
2022-09-03T18:37:31.607Z,85.32
2022-09-03T18:39:48.675Z,83.87
2022-09-03T18:42:05.674Z,84.35
2022-09-03T18:44:23.649Z,83.93
2022-09-03T18:49:17.627Z,83.71
2022-09-03T18:51:35.053Z,86.27
2022-09-03T18:53:54.597Z,85.04
2022-09-03T18:56:12.519Z,85.11
2022-09-03T18:58:30.462Z,86.93
2022-09-03T19:00:47.674Z,84.55
2022-09-03T19:03:05.110Z,85.00
2022-09-03T19:05:22.309Z,86.27
2022-09-03T19:07:39.805Z,85.11
2022-09-03T19:09:56.854Z,85.70
2022-09-03T19:12:14.205Z,86.90
2022-09-03T19:14:32.435Z,87.68
2022-09-03T19:16:49.496Z,86.65
2022-09-03T19:19:08.789Z,86.57
2022-09-03T19:21:28.111Z,84.58
2022-09-03T19:23:45.148Z,84.73
2022-09-03T19:26:03.148Z,85.00
2022-09-03T19:28:21.699Z,85.52
2022-09-03T19:30:39.944Z,86.60
2022-09-03T19:32:59.740Z,86.88
2022-09-03T19:35:16.809Z,87.60
2022-09-03T19:37:34.134Z,87.01
2022-09-03T19:39:51.266Z,86.24
2022-09-03T19:42:09.653Z,87.18
2022-09-03T19:44:26.623Z,87.76
2022-09-03T19:46:43.954Z,86.82
2022-09-03T19:49:01.053Z,87.72
2022-09-03T19:51:18.305Z,88.48
2022-09-03T19:53:36.598Z,88.68
2022-09-03T19:55:53.538Z,89.27
2022-09-03T19:58:32.215Z,89.22
2022-09-03T20:00:47.449Z,85.93
2022-09-03T20:03:04.446Z,86.42
2022-09-03T20:05:21.610Z,86.59
2022-09-03T20:07:38.571Z,86.50
2022-09-03T20:09:55.620Z,88.21
2022-09-03T20:12:12.679Z,88.42
2022-09-03T20:14:30.939Z,87.23
2022-09-03T20:16:47.999Z,86.85
2022-09-03T20:19:04.943Z,86.45
2022-09-03T20:21:22.313Z,88.22
2022-09-03T20:23:39.570Z,88.45
2022-09-03T20:25:56.853Z,87.66
2022-09-03T20:28:13.836Z,86.37
2022-09-03T20:30:30.769Z,87.24
2022-09-03T20:32:48.615Z,88.31
2022-09-03T20:35:10.343Z,88.74
2022-09-03T20:37:28.265Z,87.95
2022-09-03T20:39:45.567Z,87.32
2022-09-03T20:42:02.934Z,88.24
2022-09-03T20:44:20.196Z,89.02
2022-09-03T20:46:37.579Z,87.59
2022-09-03T20:48:54.553Z,88.25
2022-09-03T20:51:12.236Z,89.04
2022-09-03T20:53:29.797Z,89.00
2022-09-03T20:55:46.745Z,87.37
2022-09-03T20:58:03.661Z,87.61
2022-09-03T21:00:20.731Z,88.33
2022-09-03T21:02:37.865Z,89.57
2022-09-03T21:04:54.997Z,90.33
2022-09-03T21:07:12.074Z,90.63
2022-09-03T21:09:29.409Z,90.11
2022-09-03T21:11:46.361Z,90.95
2022-09-03T21:14:03.687Z,89.82
2022-09-03T21:16:20.997Z,90.42
2022-09-03T21:18:37.967Z,89.38
2022-09-03T21:20:55.296Z,90.57
2022-09-03T21:23:13.367Z,89.69
2022-09-03T21:25:30.463Z,89.84
2022-09-03T21:27:47.728Z,89.47
2022-09-03T21:30:04.756Z,90.66
2022-09-03T21:32:22.377Z,88.31
2022-09-03T21:34:39.705Z,89.21
2022-09-03T21:36:56.754Z,89.60
2022-09-03T21:39:14.066Z,89.98
2022-09-03T21:41:30.993Z,89.00
2022-09-03T21:43:48.294Z,89.80
2022-09-03T21:46:05.507Z,89.04
2022-09-03T21:48:32.170Z,89.47
2022-09-03T21:50:49.271Z,87.78
2022-09-03T21:53:06.760Z,89.48
2022-09-03T21:55:23.712Z,89.56
2022-09-03T21:57:40.726Z,87.18
2022-09-03T21:59:57.683Z,88.31
2022-09-03T22:02:14.672Z,89.58
2022-09-03T22:04:31.783Z,89.37
2022-09-03T22:06:48.827Z,89.22
2022-09-03T22:09:05.727Z,90.20
2022-09-03T22:11:22.640Z,88.38
2022-09-03T22:13:39.646Z,89.55
2022-09-03T22:15:56.758Z,90.28
2022-09-03T22:18:15.027Z,90.41
2022-09-03T22:20:32.348Z,88.77
2022-09-03T22:22:49.296Z,89.79
2022-09-03T22:25:06.644Z,90.00
2022-09-03T22:27:23.923Z,88.52
2022-09-03T22:29:41.170Z,90.95
2022-09-03T22:31:58.782Z,88.53
2022-09-03T22:34:15.877Z,89.25
2022-09-03T22:36:32.913Z,89.04
2022-09-03T22:38:50.129Z,90.71
2022-09-03T22:41:07.349Z,90.46
2022-09-03T22:43:24.583Z,90.27
2022-09-03T22:45:41.591Z,89.26
2022-09-03T22:47:58.657Z,91.19
2022-09-03T22:50:15.940Z,92.04
2022-09-03T22:52:33.136Z,90.29
2022-09-03T22:54:50.165Z,91.55
2022-09-03T22:57:07.098Z,90.49
2022-09-03T22:59:24.339Z,90.74
2022-09-03T23:01:41.471Z,90.51
2022-09-03T23:03:58.669Z,90.85
2022-09-03T23:06:15.865Z,90.19
2022-09-03T23:08:33.768Z,90.47
2022-09-03T23:10:51.046Z,92.14
2022-09-03T23:13:08.075Z,91.54
2022-09-03T23:15:25.157Z,90.58
2022-09-03T23:17:42.088Z,92.24
2022-09-03T23:19:59.578Z,91.32
2022-09-03T23:22:16.454Z,91.87
2022-09-03T23:24:33.509Z,90.49
2022-09-03T23:26:51.534Z,91.68
2022-09-03T23:29:08.818Z,91.84
2022-09-03T23:31:25.878Z,91.85
2022-09-03T23:33:43.144Z,90.94
2022-09-03T23:36:00.470Z,91.34
2022-09-03T23:38:17.582Z,91.01
2022-09-03T23:40:34.638Z,91.79
2022-09-03T23:42:52.023Z,91.31
2022-09-03T23:45:10.274Z,90.67
2022-09-03T23:47:33.410Z,92.15
2022-09-03T23:49:50.481Z,91.98
2022-09-03T23:52:07.544Z,92.23
2022-09-03T23:54:25.851Z,90.48
2022-09-03T23:56:42.953Z,89.68
2022-09-03T23:59:00.218Z,91.50
